Flight Track Log - Related Links

Times and Time Zones

All times are in EDT time to prevent confusion due to time zone crossing. See the CAL833 flight status page for this flight to view local times or setup timezone preferences in your user account.

Time Position Orientation Groundspeed Altitude Reporting Facility
EDT Latitude Longitude Course Direction KTS MPH feet Rate Location/Type
Sun 07:36:07 PM 25.0540 121.2140 226° Southwest 169 194 1,200  Level FlightAware ADS-B
Sun 07:36:37 PM 25.0380 121.1940 229° Southwest 189 217 1,800 982 Climbing FlightAware ADS-B
Sun 07:37:02 PM 25.0230 121.1750 229° Southwest 216 249 2,100 1,350 Climbing FlightAware ADS-B
Sun 07:37:17 PM 25.0140 121.1600 236° Southwest 218 251 2,700 2,400 Climbing FlightAware ADS-B
Sun 07:37:32 PM 25.0150 121.1460 275° West 220 253 3,300 2,600 Climbing FlightAware ADS-B
Sun 07:37:47 PM 25.0240 121.1310 304° West 220 253 4,000 1,950 Climbing FlightAware ADS-B
Sun 07:38:12 PM 25.0380 121.1060 302° West 246 283 4,600 1,855 Climbing FlightAware ADS-B
Sun 07:38:42 PM 25.0570 121.0720 302° West 259 298 5,700 2,400 Climbing FlightAware ADS-B
Sun 07:38:52 PM 25.0590 121.0600 280° West 254 292 6,200 2,800 Climbing FlightAware ADS-B
Sun 07:39:27 PM 25.0420 121.0190 245° Southwest 249 287 7,800 2,600 Climbing FlightAware ADS-B
Sun 07:39:52 PM 25.0260 120.9920 237° Southwest 254 292 8,800 2,182 Climbing FlightAware ADS-B
Sun 07:40:22 PM 25.0060 120.9600 235° Southwest 269 310 9,800 2,057 Climbing FlightAware ADS-B
Sun 07:41:02 PM 24.9780 120.9130 237° Southwest 285 328 11,200 2,025 Climbing FlightAware ADS-B
Sun 07:41:42 PM 24.9480 120.8630 237° Southwest 301 346 12,500 2,118 Climbing FlightAware ADS-B
Sun 07:42:27 PM 24.9120 120.8060 235° Southwest 308 354 14,200 2,200 Climbing FlightAware ADS-B
Sun 07:42:42 PM 24.9020 120.7820 245° Southwest 313 360 14,700 2,073 Climbing FlightAware ADS-B
Sun 07:43:22 PM 24.8880 120.7230 255° West 316 364 16,100 2,325 Climbing FlightAware ADS-B
Sun 07:44:02 PM 24.8710 120.6580 254° West 312 359 17,800 2,047 Climbing FlightAware ADS-B
Sun 07:44:47 PM 24.8550 120.5890 256° West 324 373 19,000 1,765 Climbing FlightAware ADS-B
Sun 07:45:27 PM 24.8390 120.5260 254° West 328 377 20,300 1,906 Climbing FlightAware ADS-B
Sun 07:46:12 PM 24.8190 120.4510 254° West 333 383 21,700 1,765 Climbing FlightAware ADS-B
Sun 07:46:52 PM 24.7830 120.3940 235° Southwest 342 394 22,800 1,575 Climbing FlightAware ADS-B
Sun 07:47:32 PM 24.7480 120.3420 233° Southwest 348 400 23,800 1,482 Climbing FlightAware ADS-B
Sun 07:48:17 PM 24.7030 120.2760 233° Southwest 351 404 24,900 1,694 Climbing FlightAware ADS-B
Sun 07:48:57 PM 24.6590 120.2250 226° Southwest 354 407 26,200 1,341 Climbing FlightAware ADS-B
Sun 07:49:42 PM 24.5900 120.1870 207° Southwest 372 428 26,800 635 Climbing FlightAware ADS-B
Sun 07:50:22 PM 24.5250 120.1510 207° Southwest 393 452 27,100 494 Climbing FlightAware ADS-B
Sun 07:51:07 PM 24.4520 120.1100 207° Southwest 410 472 27,500 494 Climbing FlightAware ADS-B
Sun 07:51:47 PM 24.3910 120.0760 207° Southwest 426 490 27,800 450 Climbing FlightAware ADS-B
Sun 07:52:27 PM 24.3130 120.0320 207° Southwest 443 510 28,100 600 Climbing FlightAware ADS-B
Sun 07:53:07 PM 24.2520 119.9990 206° Southwest 449 517 28,600 988 Climbing FlightAware ADS-B
Sun 07:53:52 PM 24.1510 119.9430 207° Southwest 457 526 29,500 1,200 Climbing FlightAware ADS-B
Sun 07:54:32 PM 24.0740 119.9010 206° Southwest 457 526 30,300 1,129 Climbing FlightAware ADS-B
Sun 07:55:17 PM 23.9920 119.8550 207° Southwest 456 525 31,100 1,271 Climbing FlightAware ADS-B
Sun 07:55:57 PM 23.9200 119.8150 207° Southwest 449 517 32,100 1,800 Climbing FlightAware ADS-B
Sun 07:56:37 PM 23.8450 119.7740 207° Southwest 431 496 33,500 1,835 Climbing FlightAware ADS-B
Sun 07:57:22 PM 23.7640 119.7300 206° Southwest 415 478 34,700 1,129 Climbing FlightAware ADS-B
Sun 07:58:02 PM 23.6950 119.6910 207° Southwest 415 478 35,100 565 Climbing FlightAware ADS-B
Sun 07:58:47 PM 23.6290 119.6420 214° Southwest 411 473 35,500 525 Climbing FlightAware ADS-B
Sun 07:59:22 PM 23.5790 119.5910 223° Southwest 409 471 35,800 675 Climbing FlightAware ADS-B
Sun 08:00:07 PM 23.5300 119.5240 231° Southwest 401 461 36,400 667 Climbing FlightAware ADS-B
Sun 08:00:52 PM 23.4840 119.4440 238° Southwest 402 463 36,800 424 Climbing FlightAware ADS-B
Sun 08:01:32 PM 23.4450 119.3780 237° Southwest 403 464 37,000 353 Climbing FlightAware ADS-B
Sun 08:02:17 PM 23.3990 119.2980 238° Southwest 406 467 37,300 360 Climbing FlightAware ADS-B
Sun 08:03:12 PM 23.3420 119.2010 237° Southwest 409 471 37,600 400 Climbing FlightAware ADS-B
Sun 08:03:47 PM 23.3060 119.1400 237° Southwest 410 472 37,900 320 Climbing FlightAware ADS-B
Sun 08:04:27 PM 23.2670 119.0720 238° Southwest 413 475 38,000 67 Climbing FlightAware ADS-B
Sun 08:05:17 PM 23.2160 118.9850 237° Southwest 421 484 38,000  Level FlightAware ADS-B
Sun 08:05:52 PM 23.1810 118.9250 238° Southwest 428 493 38,000  Level FlightAware ADS-B
Sun 08:06:27 PM 23.1400 118.8550 238° Southwest 432 497 38,000  Level FlightAware ADS-B
Sun 08:07:27 PM 23.0780 118.7490 238° Southwest 435 501 38,000  Level FlightAware ADS-B
Sun 08:08:12 PM 23.0250 118.6600 237° Southwest 436 502 38,000  Level FlightAware ADS-B
Sun 08:08:52 PM 22.9730 118.5900 231° Southwest 442 509 38,000  Level FlightAware ADS-B
Sun 08:09:37 PM 22.9040 118.5220 222° Southwest 447 514 38,000  Level FlightAware ADS-B
Sun 08:10:17 PM 22.8380 118.4740 214° Southwest 451 519 38,000  Level FlightAware ADS-B
Sun 08:11:02 PM 22.7560 118.4250 209° Southwest 450 518 38,000  Level FlightAware ADS-B
Sun 08:11:42 PM 22.6820 118.3800 209° Southwest 449 517 38,000  Level FlightAware ADS-B
Sun 08:12:22 PM 22.6080 118.3370 208° Southwest 448 516 38,000  Level FlightAware ADS-B
Sun 08:13:07 PM 22.5230 118.2870 209° Southwest 448 516 38,000  Level FlightAware ADS-B
Sun 08:13:47 PM 22.4510 118.2450 208° Southwest 449 517 38,000  Level FlightAware ADS-B
Sun 08:14:32 PM 22.3750 118.2000 209° Southwest 448 516 38,000  Level FlightAware ADS-B
Sun 08:15:12 PM 22.3010 118.1570 208° Southwest 447 514 38,000  Level FlightAware ADS-B
Sun 08:15:47 PM 22.2460 118.1250 208° Southwest 447 514 38,000  Level FlightAware ADS-B
Sun 08:16:32 PM 22.1500 118.0690 208° Southwest 446 513 38,000  Level FlightAware ADS-B
Sun 08:17:17 PM 22.0690 118.0210 209° Southwest 444 511 38,000  Level FlightAware ADS-B
Sun 08:18:02 PM 21.9880 117.9740 208° Southwest 442 509 38,000  Level FlightAware ADS-B
Sun 08:18:47 PM 21.9050 117.9260 208° Southwest 441 507 38,000  Level FlightAware ADS-B
Sun 08:19:27 PM 21.8330 117.8840 208° Southwest 441 507 38,000  Level FlightAware ADS-B
Sun 08:20:07 PM 21.7620 117.8430 208° Southwest 442 509 38,000  Level FlightAware ADS-B
Sun 08:20:52 PM 21.6840 117.7980 208° Southwest 442 509 38,000  Level FlightAware ADS-B
Sun 08:21:32 PM 21.6100 117.7550 208° Southwest 443 510 38,000  Level FlightAware ADS-B
Sun 08:22:17 PM 21.5270 117.7070 208° Southwest 443 510 38,000  Level FlightAware ADS-B
Sun 08:23:07 PM 21.4390 117.6560 208° Southwest 443 510 38,000  Level FlightAware ADS-B
Sun 08:23:52 PM 21.3680 117.6160 208° Southwest 443 510 38,000  Level FlightAware ADS-B
Sun 08:24:32 PM 21.3060 117.5810 208° Southwest 443 510 38,000  Level FlightAware ADS-B
Sun 08:25:12 PM 21.2450 117.5460 208° Southwest 443 510 38,000  Level FlightAware ADS-B
Sun 08:25:52 PM 21.1830 117.5100 208° Southwest 443 510 38,000  Level FlightAware ADS-B
Sun 08:26:42 PM 21.1060 117.4670 208° Southwest 443 510 38,000  Level FlightAware ADS-B
Sun 08:27:22 PM 21.0450 117.4320 208° Southwest 443 510 38,000  Level FlightAware ADS-B
Sun 08:28:02 PM 20.9830 117.3970 208° Southwest 443 510 38,000  Level FlightAware ADS-B
Sun 08:28:42 PM 20.9220 117.3610 209° Southwest 443 510 38,000  Level FlightAware ADS-B
Sun 08:29:22 PM 20.8600 117.3260 208° Southwest 443 510 38,000  Level FlightAware ADS-B
Sun 08:30:12 PM 20.7830 117.2830 208° Southwest 443 510 38,000  Level FlightAware ADS-B
Sun 08:30:52 PM 20.7220 117.2480 208° Southwest 443 510 38,000  Level FlightAware ADS-B
Sun 08:31:32 PM 20.6600 117.2130 208° Southwest 443 510 38,000  Level FlightAware ADS-B
Sun 08:32:12 PM 20.5990 117.1780 208° Southwest 443 510 38,000  Level FlightAware ADS-B
Sun 08:32:52 PM 20.5370 117.1430 208° Southwest 443 510 38,000  Level FlightAware ADS-B
Sun 08:35:00 PM 20.4564 116.9197 249° West  Level Estimated
Sun 08:36:00 PM 20.4185 116.8151 249° West  Level Estimated
Sun 08:37:00 PM 20.3805 116.7106 249° West  Level Estimated
Sun 08:38:00 PM 20.3425 116.6061 249° West  Level Estimated
Sun 08:39:00 PM 20.3044 116.5017 249° West  Level Estimated
Sun 08:40:00 PM 20.2663 116.3973 249° West  Level Estimated
Sun 08:41:00 PM 20.2281 116.2930 249° West  Level Estimated
Sun 08:42:00 PM 20.1898 116.1887 249° West  Level Estimated
Sun 08:43:00 PM 20.1515 116.0845 249° West  Level Estimated
Sun 08:44:00 PM 20.1131 115.9803 249° West  Level Estimated
Sun 08:45:00 PM 20.0747 115.8762 249° West  Level Estimated
Sun 08:46:00 PM 20.0361 115.7721 249° West  Level Estimated
Sun 08:47:00 PM 19.9976 115.6681 248° West  Level Estimated
Sun 08:48:00 PM 19.9590 115.5641 248° West  Level Estimated
Sun 08:49:00 PM 19.9203 115.4602 248° West  Level Estimated
Sun 08:49:17 PM 19.9850 114.6990 248° West 457 526 38,000  Level FlightAware ADS-B
Sun 08:50:12 PM 19.9300 114.5960 240° Southwest 457 526 38,000  Level FlightAware ADS-B
Sun 08:50:52 PM 19.8940 114.5290 240° Southwest 457 526 38,000  Level FlightAware ADS-B
Sun 08:51:32 PM 19.8580 114.4630 240° Southwest 457 526 38,000  Level FlightAware ADS-B
Sun 08:53:47 PM 19.7040 114.1690 247° West 38,000  Level FlightAware ADS-B
Sun 08:54:00 PM 19.7562 114.2097 247° West  Level Estimated
Sun 08:54:37 PM 19.6560 114.0810 240° Southwest 458 527 38,000  Level FlightAware ADS-B
Sun 08:55:17 PM 19.6200 114.0150 240° Southwest 458 527 38,000  Level FlightAware ADS-B
Sun 08:55:57 PM 19.5840 113.9480 240° Southwest 458 527 38,000  Level FlightAware ADS-B
Sun 08:56:47 PM 19.5390 113.8660 240° Southwest 458 527 38,000  Level FlightAware ADS-B
Sun 08:57:27 PM 19.5030 113.8000 240° Southwest 458 527 38,000  Level FlightAware ADS-B
Sun 08:58:07 PM 19.4670 113.7330 240° Southwest 458 527 38,000  Level FlightAware ADS-B
Sun 08:58:47 PM 19.4310 113.6670 240° Southwest 458 527 38,000  Level FlightAware ADS-B
Sun 08:59:27 PM 19.3950 113.6010 240° Southwest 458 527 38,000  Level FlightAware ADS-B
Sun 09:00:17 PM 19.3500 113.5180 240° Southwest 458 527 38,000  Level FlightAware ADS-B
Sun 09:00:57 PM 19.3140 113.4520 240° Southwest 458 527 38,000  Level FlightAware ADS-B
Sun 09:01:37 PM 19.2780 113.3860 240° Southwest 458 527 38,000  Level FlightAware ADS-B
Sun 09:02:17 PM 19.2420 113.3200 240° Southwest 458 527 38,000  Level FlightAware ADS-B
Sun 09:02:57 PM 19.2060 113.2540 240° Southwest 458 527 38,000  Level FlightAware ADS-B
Sun 09:03:47 PM 19.1610 113.1710 240° Southwest 458 527 38,000  Level FlightAware ADS-B
Sun 09:06:00 PM 19.0705 112.9439 247° West  Level Estimated
Sun 09:07:00 PM 19.0295 112.8415 247° West  Level Estimated
Sun 09:08:00 PM 18.9886 112.7392 247° West  Level Estimated
Sun 09:09:00 PM 18.9475 112.6369 247° West  Level Estimated
Sun 09:10:00 PM 18.9064 112.5347 247° West  Level Estimated
Sun 09:11:00 PM 18.8652 112.4325 247° West  Level Estimated
Sun 09:12:00 PM 18.8240 112.3304 247° West  Level Estimated
Sun 09:13:00 PM 18.7828 112.2283 247° West  Level Estimated
Sun 09:14:00 PM 18.7414 112.1262 247° West  Level Estimated
Sun 09:15:00 PM 18.7001 112.0243 247° West  Level Estimated
Sun 09:16:00 PM 18.6586 111.9223 247° West  Level Estimated
Sun 09:17:00 PM 18.6171 111.8204 247° West  Level Estimated
Sun 09:18:00 PM 18.5756 111.7186 247° West  Level Estimated
Sun 09:19:00 PM 18.5340 111.6168 247° West  Level Estimated
Sun 09:20:00 PM 18.4923 111.5151 247° West  Level Estimated
Sun 09:21:00 PM 18.4506 111.4134 247° West  Level Estimated
Sun 09:22:00 PM 18.4089 111.3118 247° West  Level Estimated
Sun 09:23:00 PM 18.3671 111.2102 247° West  Level Estimated
Sun 09:24:00 PM 18.3252 111.1087 247° West  Level Estimated
Sun 09:25:00 PM 18.2833 111.0072 247° West  Level Estimated
Sun 09:26:00 PM 18.2413 110.9058 246° West  Level Estimated
Sun 09:27:00 PM 18.1992 110.8044 246° West  Level Estimated
Sun 09:28:00 PM 18.1572 110.7031 246° West  Level Estimated
Sun 09:29:00 PM 18.1150 110.6018 246° West  Level Estimated
Sun 09:30:00 PM 18.0728 110.5005 246° West  Level Estimated
Sun 09:31:00 PM 18.0306 110.3994 246° West  Level Estimated
Sun 09:32:00 PM 17.9883 110.2982 246° West  Level Estimated
Sun 09:33:00 PM 17.9459 110.1971 246° West  Level Estimated
Sun 09:34:00 PM 17.9035 110.0961 246° West  Level Estimated
Sun 09:35:00 PM 17.8611 109.9951 246° West  Level Estimated
Sun 09:36:00 PM 17.8186 109.8941 246° West  Level Estimated
Sun 09:37:00 PM 17.7760 109.7932 246° West  Level Estimated
Sun 09:38:00 PM 17.7334 109.6924 246° West  Level Estimated
Sun 09:39:00 PM 17.6908 109.5916 246° West  Level Estimated
Sun 09:40:00 PM 17.6481 109.4908 246° West  Level Estimated
Sun 09:41:00 PM 17.6053 109.3901 246° West  Level Estimated
Sun 09:42:00 PM 17.5625 109.2895 246° West  Level Estimated
Sun 09:43:00 PM 17.5196 109.1889 246° West  Level Estimated
Sun 09:44:00 PM 17.4767 109.0883 246° West  Level Estimated
Sun 09:45:00 PM 17.4338 108.9878 246° West  Level Estimated
Sun 09:46:00 PM 17.3908 108.8873 246° West  Level Estimated
Sun 09:47:00 PM 17.3477 108.7869 246° West  Level Estimated
Sun 09:48:00 PM 17.3046 108.6865 246° West  Level Estimated
Sun 09:49:00 PM 17.2614 108.5862 246° West  Level Estimated
Sun 09:50:00 PM 17.2182 108.4859 246° West  Level Estimated
Sun 09:51:00 PM 17.1749 108.3857 246° West  Level Estimated
Sun 09:52:00 PM 17.1316 108.2855 246° West  Level Estimated
Sun 09:53:00 PM 17.0882 108.1853 246° West  Level Estimated
Sun 09:54:00 PM 17.0448 108.0853 246° West  Level Estimated
Sun 09:55:00 PM 17.0014 107.9852 246° West  Level Estimated
Sun 09:56:00 PM 16.9579 107.8852 246° West  Level Estimated
Sun 09:57:00 PM 16.9143 107.7853 246° West  Level Estimated
Sun 09:58:00 PM 16.8707 107.6853 245° Southwest  Level Estimated
Sun 09:58:37 PM 15.6150 106.4840 245° Southwest 464 534 38,000  Level FlightAware ADS-B
Sun 09:59:00 PM 16.8270 107.5855 245° Southwest  Level Estimated
Sun 09:59:22 PM 15.5930 106.3840 257° West 464 534 38,000  Level FlightAware ADS-B
Sun 10:00:02 PM 15.5740 106.2990 257° West 462 532 38,000  Level FlightAware ADS-B
Sun 10:00:47 PM 15.5520 106.2000 257° West 463 533 38,000  Level FlightAware ADS-B
Sun 10:01:22 PM 15.5350 106.1230 257° West 465 535 38,000  Level FlightAware ADS-B
Sun 10:02:07 PM 15.5160 106.0300 258° West 466 536 38,000  Level FlightAware ADS-B
Sun 10:02:47 PM 15.5000 105.9550 258° West 466 536 38,000  Level FlightAware ADS-B
Sun 10:03:27 PM 15.4850 105.8810 258° West 466 536 38,000  Level FlightAware ADS-B
Sun 10:04:17 PM 15.4660 105.7880 258° West 466 536 38,000  Level FlightAware ADS-B
Sun 10:04:57 PM 15.4510 105.7140 258° West 466 536 38,000  Level FlightAware ADS-B
Sun 10:05:37 PM 15.4360 105.6390 258° West 466 536 38,000  Level FlightAware ADS-B
Sun 10:06:17 PM 15.4200 105.5650 257° West 466 536 38,000  Level FlightAware ADS-B
Sun 10:06:57 PM 15.4050 105.4910 258° West 466 536 38,000  Level FlightAware ADS-B
Sun 10:07:47 PM 15.3860 105.3980 258° West 466 536 38,000  Level FlightAware ADS-B
Sun 10:08:27 PM 15.3710 105.3230 258° West 466 536 38,000  Level FlightAware ADS-B
Sun 10:09:07 PM 15.3560 105.2490 258° West 466 536 38,000  Level FlightAware ADS-B
Sun 10:09:47 PM 15.3400 105.1740 258° West 466 536 38,000  Level FlightAware ADS-B
Sun 10:10:27 PM 15.3250 105.1000 258° West 466 536 38,000  Level FlightAware ADS-B
Sun 10:11:17 PM 15.3060 105.0070 258° West 466 536 38,000  Level FlightAware ADS-B
Sun 10:13:00 PM 15.2414 104.8324 249° West  Level Estimated
Sun 10:14:00 PM 15.2037 104.7308 249° West  Level Estimated
Sun 10:15:00 PM 15.1660 104.6292 249° West  Level Estimated
Sun 10:16:00 PM 15.1282 104.5276 249° West  Level Estimated
Sun 10:17:00 PM 15.0904 104.4260 249° West  Level Estimated
Sun 10:18:00 PM 15.0525 104.3245 249° West  Level Estimated
Sun 10:19:00 PM 15.0146 104.2231 249° West  Level Estimated
Sun 10:19:12 PM 15.0090 103.7700 249° West 478 550 38,000  Level FlightAware ADS-B
Sun 10:20:07 PM 14.9820 103.6550 256° West 478 550 38,000  Level FlightAware ADS-B
Sun 10:20:47 PM 14.9610 103.5630 257° West 477 549 38,000  Level FlightAware ADS-B
Sun 10:21:47 PM 14.9270 103.4120 257° West 478 550 38,000  Level FlightAware ADS-B
Sun 10:22:27 PM 14.9110 103.3410 257° West 477 549 38,000 -75 Level FlightAware ADS-B
Sun 10:23:07 PM 14.8870 103.2350 257° West 477 549 37,900 -635 Descending FlightAware ADS-B
Sun 10:23:52 PM 14.8630 103.1330 256° West 478 550 37,100 -1,011 Descending FlightAware ADS-B
Sun 10:24:42 PM 14.8380 103.0210 257° West 475 547 36,300 -505 Descending FlightAware ADS-B
Sun 10:25:27 PM 14.8170 102.9340 256° West 475 547 36,300  Level FlightAware ADS-B
Sun 10:26:07 PM 14.7990 102.8590 256° West 475 547 36,300 -2,850 Level FlightAware ADS-B
Sun 10:26:47 PM 14.7800 102.7720 257° West 467 537 32,500 -2,682 Descending FlightAware ADS-B
Sun 10:27:32 PM 14.7580 102.6820 256° West 467 537 32,500 -1,725 Level FlightAware ADS-B
Sun 10:28:07 PM 14.7390 102.5960 257° West 450 518 30,200 -2,800 Descending FlightAware ADS-B
Sun 10:29:02 PM 14.7080 102.4640 256° West 439 505 28,300 -1,768 Descending FlightAware ADS-B
Sun 10:29:42 PM 14.6930 102.3960 257° West 432 497 27,400 -1,650 Descending FlightAware ADS-B
Sun 10:30:22 PM 14.6710 102.3040 256° West 424 488 26,100 -1,694 Descending FlightAware ADS-B
Sun 10:31:07 PM 14.6540 102.2320 256° West 418 481 25,000 -1,694 Descending FlightAware ADS-B
Sun 10:31:47 PM 14.6330 102.1400 257° West 412 474 23,700 -1,760 Descending FlightAware ADS-B
Sun 10:32:22 PM 14.6190 102.0830 256° West 408 470 22,800 -1,575 Descending FlightAware ADS-B
Sun 10:33:07 PM 14.5990 101.9960 257° West 401 461 21,600 -1,371 Descending FlightAware ADS-B
Sun 10:34:07 PM 14.5740 101.8940 256° West 406 467 20,400 -2,160 Descending FlightAware ADS-B
Sun 10:34:47 PM 14.5570 101.8180 257° West 407 468 18,000 -2,400 Descending FlightAware ADS-B
Sun 10:35:32 PM 14.5360 101.7300 256° West 365 420 17,000 -1,263 Descending FlightAware ADS-B
Sun 10:36:22 PM 14.5180 101.6550 256° West 356 410 16,000 -1,453 Descending FlightAware ADS-B
Sun 10:37:07 PM 14.4980 101.5710 256° West 348 400 14,700 -1,875 Descending FlightAware ADS-B
Sun 10:37:42 PM 14.4790 101.5180 250° West 352 405 13,500 -1,412 Descending FlightAware ADS-B
Sun 10:38:32 PM 14.4330 101.4570 232° Southwest 338 389 12,700 -1,011 Descending FlightAware ADS-B
Sun 10:39:17 PM 14.3900 101.3990 233° Southwest 322 371 11,900 -988 Descending FlightAware ADS-B
Sun 10:39:57 PM 14.3550 101.3480 235° Southwest 308 354 11,300 -900 Descending FlightAware ADS-B
Sun 10:40:37 PM 14.3310 101.2970 244° Southwest 296 341 10,700 -1,129 Descending FlightAware ADS-B
Sun 10:41:22 PM 14.3040 101.2400 244° Southwest 293 337 9,700 -1,200 Descending FlightAware ADS-B
Sun 10:41:37 PM 14.2960 101.2220 245° Southwest 293 337 9,500 -1,050 Descending FlightAware ADS-B
Sun 10:42:02 PM 14.2810 101.1910 243° Southwest 289 333 9,000 -1,114 Descending FlightAware ADS-B
Sun 10:42:47 PM 14.2550 101.1350 244° Southwest 281 323 8,200 -1,114 Descending FlightAware ADS-B
Sun 10:43:12 PM 14.2410 101.1060 244° Southwest 277 319 7,700 -1,200 Descending FlightAware ADS-B
Sun 10:43:42 PM 14.2250 101.0710 245° Southwest 275 316 7,100 -1,309 Descending FlightAware ADS-B
Sun 10:44:07 PM 14.2070 101.0430 236° Southwest 274 315 6,500 -1,200 Descending FlightAware ADS-B
Sun 10:44:37 PM 14.1760 101.0210 215° Southwest 271 312 6,000 -1,080 Descending FlightAware ADS-B
Sun 10:44:57 PM 14.1540 101.0050 215° Southwest 272 313 5,600 -831 Descending FlightAware ADS-B
Sun 10:45:42 PM 14.1090 100.9730 215° Southwest 268 308 5,100 -720 Descending FlightAware ADS-B
Sun 10:46:12 PM 14.0770 100.9490 216° Southwest 266 306 4,700 -700 Descending FlightAware ADS-B
Sun 10:46:42 PM 14.0490 100.9290 215° Southwest 267 307 4,400 -600 Descending FlightAware ADS-B
Sun 10:47:12 PM 14.0190 100.9070 215° Southwest 261 300 4,100 -655 Descending FlightAware ADS-B
Sun 10:47:37 PM 13.9960 100.8900 216° Southwest 253 291 3,800 -800 Descending FlightAware ADS-B
Sun 10:47:57 PM 13.9750 100.8750 215° Southwest 245 282 3,500 -840 Descending FlightAware ADS-B
Sun 10:48:27 PM 13.9460 100.8540 215° Southwest 238 274 3,100 -655 Descending FlightAware ADS-B
Sun 10:48:52 PM 13.9260 100.8390 216° Southwest 231 266 2,900 -600 Descending FlightAware ADS-B
Sun 10:49:17 PM 13.9050 100.8240 215° Southwest 222 255 2,600 -545 Descending FlightAware ADS-B
Sun 10:49:47 PM 13.8820 100.8080 214° Southwest 207 238 2,400 -450 Descending FlightAware ADS-B
Sun 10:49:57 PM 13.8730 100.8010 217° Southwest 201 231 2,300 -450 Descending FlightAware ADS-B
Sun 10:50:27 PM 13.8500 100.7850 214° Southwest 190 219 2,100 -200 Descending FlightAware ADS-B
Sun 10:50:57 PM 13.8250 100.7750 201° Southwest 178 205 2,100  Level FlightAware ADS-B
Sun 10:51:22 PM 13.8070 100.7700 195° South 173 199 2,100 -480 Level FlightAware ADS-B
Sun 10:51:47 PM 13.7880 100.7650 194° South 171 197 1,700 -873 Descending FlightAware ADS-B
Sun 10:52:17 PM 13.7660 100.7590 195° South 156 180 1,300 -800 Descending FlightAware ADS-B
Sun 10:52:47 PM 13.7450 100.7540 193° South 142 163 900 -764 Descending FlightAware ADS-B
Sun 10:53:12 PM 13.7300 100.7500 195° South 143 165 600 -655 Descending FlightAware ADS-B
Sun 10:53:42 PM 13.7120 100.7450 195° South 144 166 300 -327 Descending FlightAware ADS-B
Sun 10:54:07 PM 13.6960 100.7410 194° South 144 166 300  Level FlightAware ADS-B
Sun 10:56:00 PM 13.6811 100.7473 158° South  Level Estimated
Sun 10:57:00 PM 13.6811 100.7473 124° Southeast  Level Estimated
Sun 10:58:00 PM 13.6811 100.7473 124° Southeast  Level Estimated
Sun 10:59:00 PM 13.6811 100.7473 124° Southeast  Level Estimated
Sun 11:00:00 PM 13.6811 100.7473 124° Southeast  Level Estimated
Sun 11:01:00 PM 13.6811 100.7473 124° Southeast  Level Estimated

Login

Don't have an account? Register now (free) for customized features, flight alerts, and more!